sensor_id;sensor_type;location;lat;lon;timestamp;P1;durP1;ratioP1;P2;durP2;ratioP2
28170;SDS011;15458;53.346;-1.688;2022-11-15T00:00:25;8.20;;;1.80;;
28170;SDS011;15458;53.346;-1.688;2022-11-15T00:02:54;7.93;;;1.60;;
28170;SDS011;15458;53.346;-1.688;2022-11-15T00:05:20;8.43;;;1.90;;
28170;SDS011;15458;53.346;-1.688;2022-11-15T00:07:46;9.02;;;1.67;;
28170;SDS011;15458;53.346;-1.688;2022-11-15T00:10:12;11.57;;;1.65;;
28170;SDS011;15458;53.346;-1.688;2022-11-15T00:12:38;2.88;;;1.45;;
28170;SDS011;15458;53.346;-1.688;2022-11-15T00:15:03;5.68;;;1.33;;
28170;SDS011;15458;53.346;-1.688;2022-11-15T00:17:30;8.73;;;1.75;;
28170;SDS011;15458;53.346;-1.688;2022-11-15T00:19:55;8.90;;;2.88;;
28170;SDS011;15458;53.346;-1.688;2022-11-15T00:22:21;5.30;;;1.50;;
28170;SDS011;15458;53.346;-1.688;2022-11-15T00:24:47;9.48;;;1.70;;
28170;SDS011;15458;53.346;-1.688;2022-11-15T00:27:12;7.18;;;1.50;;
28170;SDS011;15458;53.346;-1.688;2022-11-15T00:29:38;4.35;;;1.35;;
28170;SDS011;15458;53.346;-1.688;2022-11-15T00:32:08;8.10;;;1.80;;
28170;SDS011;15458;53.346;-1.688;2022-11-15T00:34:34;4.15;;;1.50;;
28170;SDS011;15458;53.346;-1.688;2022-11-15T00:37:00;5.30;;;1.65;;
28170;SDS011;15458;53.346;-1.688;2022-11-15T00:39:25;3.05;;;1.40;;
28170;SDS011;15458;53.346;-1.688;2022-11-15T00:41:51;5.80;;;1.75;;
28170;SDS011;15458;53.346;-1.688;2022-11-15T00:44:18;8.50;;;1.80;;
28170;SDS011;15458;53.346;-1.688;2022-11-15T00:46:44;6.65;;;2.25;;
28170;SDS011;15458;53.346;-1.688;2022-11-15T00:49:09;10.77;;;2.13;;
28170;SDS011;15458;53.346;-1.688;2022-11-15T00:51:35;5.95;;;1.60;;
28170;SDS011;15458;53.346;-1.688;2022-11-15T00:54:00;5.65;;;1.60;;
28170;SDS011;15458;53.346;-1.688;2022-11-15T00:56:26;6.25;;;1.65;;
28170;SDS011;15458;53.346;-1.688;2022-11-15T00:58:52;7.22;;;1.73;;
28170;SDS011;15458;53.346;-1.688;2022-11-15T01:01:18;9.23;;;2.38;;
28170;SDS011;15458;53.346;-1.688;2022-11-15T01:03:44;7.80;;;2.08;;
28170;SDS011;15458;53.346;-1.688;2022-11-15T01:06:10;5.85;;;1.77;;
28170;SDS011;15458;53.346;-1.688;2022-11-15T01:08:38;6.55;;;2.50;;
28170;SDS011;15458;53.346;-1.688;2022-11-15T01:11:05;12.93;;;2.25;;
28170;SDS011;15458;53.346;-1.688;2022-11-15T01:13:33;6.30;;;1.98;;
28170;SDS011;15458;53.346;-1.688;2022-11-15T01:16:08;7.40;;;2.20;;
28170;SDS011;15458;53.346;-1.688;2022-11-15T01:18:38;9.88;;;2.28;;
28170;SDS011;15458;53.346;-1.688;2022-11-15T01:21:08;5.55;;;2.08;;
28170;SDS011;15458;53.346;-1.688;2022-11-15T01:23:41;6.10;;;2.20;;
28170;SDS011;15458;53.346;-1.688;2022-11-15T01:26:09;6.15;;;2.20;;
28170;SDS011;15458;53.346;-1.688;2022-11-15T01:28:37;10.68;;;2.03;;
28170;SDS011;15458;53.346;-1.688;2022-11-15T01:31:05;10.88;;;2.83;;
28170;SDS011;15458;53.346;-1.688;2022-11-15T01:33:35;6.68;;;2.00;;
28170;SDS011;15458;53.346;-1.688;2022-11-15T01:36:05;11.68;;;2.45;;
28170;SDS011;15458;53.346;-1.688;2022-11-15T01:38:33;9.90;;;2.88;;
28170;SDS011;15458;53.346;-1.688;2022-11-15T01:40:59;4.20;;;1.90;;
28170;SDS011;15458;53.346;-1.688;2022-11-15T01:43:26;9.10;;;2.35;;
28170;SDS011;15458;53.346;-1.688;2022-11-15T01:48:45;9.60;;;2.38;;
28170;SDS011;15458;53.346;-1.688;2022-11-15T01:51:11;6.45;;;2.10;;
28170;SDS011;15458;53.346;-1.688;2022-11-15T01:53:41;12.88;;;2.00;;
28170;SDS011;15458;53.346;-1.688;2022-11-15T01:56:13;14.20;;;2.28;;
28170;SDS011;15458;53.346;-1.688;2022-11-15T01:58:45;5.20;;;1.88;;
28170;SDS011;15458;53.346;-1.688;2022-11-15T02:01:11;7.35;;;2.20;;
28170;SDS011;15458;53.346;-1.688;2022-11-15T02:03:44;6.50;;;2.33;;
28170;SDS011;15458;53.346;-1.688;2022-11-15T02:06:15;9.65;;;2.20;;
28170;SDS011;15458;53.346;-1.688;2022-11-15T02:08:41;5.55;;;2.20;;
28170;SDS011;15458;53.346;-1.688;2022-11-15T02:11:08;9.13;;;2.60;;
28170;SDS011;15458;53.346;-1.688;2022-11-15T02:13:34;8.38;;;2.08;;
28170;SDS011;15458;53.346;-1.688;2022-11-15T02:19:00;8.90;;;2.28;;
28170;SDS011;15458;53.346;-1.688;2022-11-15T02:29:36;17.63;;;2.10;;
28170;SDS011;15458;53.346;-1.688;2022-11-15T02:40:28;6.60;;;1.73;;
28170;SDS011;15458;53.346;-1.688;2022-11-15T02:43:09;13.93;;;2.15;;
28170;SDS011;15458;53.346;-1.688;2022-11-15T02:46:03;13.05;;;2.28;;
28170;SDS011;15458;53.346;-1.688;2022-11-15T02:48:42;8.90;;;2.10;;
28170;SDS011;15458;53.346;-1.688;2022-11-15T02:51:09;14.52;;;2.28;;
28170;SDS011;15458;53.346;-1.688;2022-11-15T02:53:36;14.18;;;2.20;;
28170;SDS011;15458;53.346;-1.688;2022-11-15T02:56:02;5.60;;;1.60;;
28170;SDS011;15458;53.346;-1.688;2022-11-15T03:01:17;14.63;;;1.92;;
28170;SDS011;15458;53.346;-1.688;2022-11-15T03:04:25;11.27;;;2.17;;
28170;SDS011;15458;53.346;-1.688;2022-11-15T03:07:00;11.35;;;1.73;;
28170;SDS011;15458;53.346;-1.688;2022-11-15T03:14:57;9.23;;;1.80;;
28170;SDS011;15458;53.346;-1.688;2022-11-15T03:17:30;17.42;;;3.95;;
28170;SDS011;15458;53.346;-1.688;2022-11-15T03:20:04;14.48;;;1.98;;
28170;SDS011;15458;53.346;-1.688;2022-11-15T03:22:33;6.22;;;1.70;;
28170;SDS011;15458;53.346;-1.688;2022-11-15T03:25:05;6.82;;;1.33;;
28170;SDS011;15458;53.346;-1.688;2022-11-15T03:27:34;7.93;;;1.30;;
28170;SDS011;15458;53.346;-1.688;2022-11-15T03:32:32;8.70;;;2.05;;
28170;SDS011;15458;53.346;-1.688;2022-11-15T03:35:03;8.98;;;2.42;;
28170;SDS011;15458;53.346;-1.688;2022-11-15T03:37:32;13.90;;;1.75;;
28170;SDS011;15458;53.346;-1.688;2022-11-15T03:39:59;11.50;;;1.88;;
28170;SDS011;15458;53.346;-1.688;2022-11-15T03:45:21;11.80;;;1.42;;
28170;SDS011;15458;53.346;-1.688;2022-11-15T03:47:58;5.03;;;1.90;;
28170;SDS011;15458;53.346;-1.688;2022-11-15T03:50:27;8.10;;;1.40;;
28170;SDS011;15458;53.346;-1.688;2022-11-15T03:52:54;8.02;;;1.25;;
28170;SDS011;15458;53.346;-1.688;2022-11-15T03:55:21;7.25;;;1.58;;
28170;SDS011;15458;53.346;-1.688;2022-11-15T03:57:47;14.48;;;1.50;;
28170;SDS011;15458;53.346;-1.688;2022-11-15T04:00:15;9.63;;;2.28;;
28170;SDS011;15458;53.346;-1.688;2022-11-15T04:02:41;7.63;;;1.33;;
28170;SDS011;15458;53.346;-1.688;2022-11-15T04:05:07;6.50;;;1.50;;
28170;SDS011;15458;53.346;-1.688;2022-11-15T04:07:33;6.47;;;1.63;;
28170;SDS011;15458;53.346;-1.688;2022-11-15T04:09:59;11.35;;;1.85;;
28170;SDS011;15458;53.346;-1.688;2022-11-15T04:12:27;10.55;;;1.60;;
28170;SDS011;15458;53.346;-1.688;2022-11-15T04:14:58;7.80;;;1.48;;
28170;SDS011;15458;53.346;-1.688;2022-11-15T04:17:32;13.45;;;2.80;;
28170;SDS011;15458;53.346;-1.688;2022-11-15T04:19:58;11.10;;;1.30;;
28170;SDS011;15458;53.346;-1.688;2022-11-15T04:22:42;6.30;;;1.50;;
28170;SDS011;15458;53.346;-1.688;2022-11-15T04:25:26;11.90;;;2.35;;
28170;SDS011;15458;53.346;-1.688;2022-11-15T04:27:51;14.55;;;1.58;;
28170;SDS011;15458;53.346;-1.688;2022-11-15T04:30:17;8.70;;;1.38;;
28170;SDS011;15458;53.346;-1.688;2022-11-15T04:32:43;7.30;;;1.48;;
28170;SDS011;15458;53.346;-1.688;2022-11-15T04:35:08;7.55;;;2.13;;
28170;SDS011;15458;53.346;-1.688;2022-11-15T04:37:34;14.98;;;1.83;;
28170;SDS011;15458;53.346;-1.688;2022-11-15T04:39:59;9.38;;;2.60;;
28170;SDS011;15458;53.346;-1.688;2022-11-15T04:42:25;14.45;;;2.00;;
28170;SDS011;15458;53.346;-1.688;2022-11-15T04:44:51;7.88;;;1.65;;
28170;SDS011;15458;53.346;-1.688;2022-11-15T04:47:16;9.65;;;1.75;;
28170;SDS011;15458;53.346;-1.688;2022-11-15T04:49:42;12.65;;;3.00;;
28170;SDS011;15458;53.346;-1.688;2022-11-15T04:52:08;14.32;;;1.90;;
28170;SDS011;15458;53.346;-1.688;2022-11-15T04:54:34;10.95;;;1.75;;
28170;SDS011;15458;53.346;-1.688;2022-11-15T04:57:00;10.43;;;1.70;;
28170;SDS011;15458;53.346;-1.688;2022-11-15T04:59:25;12.13;;;1.95;;
28170;SDS011;15458;53.346;-1.688;2022-11-15T05:01:53;7.03;;;1.65;;
28170;SDS011;15458;53.346;-1.688;2022-11-15T05:04:19;8.35;;;1.70;;
28170;SDS011;15458;53.346;-1.688;2022-11-15T05:06:48;10.93;;;1.77;;
28170;SDS011;15458;53.346;-1.688;2022-11-15T05:09:16;12.77;;;2.20;;
28170;SDS011;15458;53.346;-1.688;2022-11-15T05:11:45;9.82;;;2.00;;
28170;SDS011;15458;53.346;-1.688;2022-11-15T05:14:11;11.45;;;1.88;;
28170;SDS011;15458;53.346;-1.688;2022-11-15T05:16:38;10.52;;;2.60;;
28170;SDS011;15458;53.346;-1.688;2022-11-15T05:19:04;8.73;;;2.03;;
28170;SDS011;15458;53.346;-1.688;2022-11-15T05:21:30;6.45;;;1.77;;
28170;SDS011;15458;53.346;-1.688;2022-11-15T05:23:56;14.65;;;2.55;;
28170;SDS011;15458;53.346;-1.688;2022-11-15T05:26:22;13.65;;;2.15;;
28170;SDS011;15458;53.346;-1.688;2022-11-15T05:28:51;7.18;;;2.17;;
28170;SDS011;15458;53.346;-1.688;2022-11-15T05:33:44;8.10;;;1.98;;
28170;SDS011;15458;53.346;-1.688;2022-11-15T05:38:42;12.38;;;2.40;;
28170;SDS011;15458;53.346;-1.688;2022-11-15T05:41:08;8.27;;;1.90;;
28170;SDS011;15458;53.346;-1.688;2022-11-15T05:43:35;6.03;;;1.70;;
28170;SDS011;15458;53.346;-1.688;2022-11-15T05:46:04;6.97;;;2.00;;
28170;SDS011;15458;53.346;-1.688;2022-11-15T05:48:30;8.25;;;2.38;;
28170;SDS011;15458;53.346;-1.688;2022-11-15T05:50:57;10.07;;;1.90;;
28170;SDS011;15458;53.346;-1.688;2022-11-15T05:53:24;7.15;;;2.03;;
28170;SDS011;15458;53.346;-1.688;2022-11-15T05:55:51;5.03;;;1.83;;
28170;SDS011;15458;53.346;-1.688;2022-11-15T05:58:17;4.32;;;1.85;;
28170;SDS011;15458;53.346;-1.688;2022-11-15T06:00:43;5.28;;;1.90;;
28170;SDS011;15458;53.346;-1.688;2022-11-15T06:03:09;5.35;;;2.00;;
28170;SDS011;15458;53.346;-1.688;2022-11-15T06:05:35;9.48;;;2.22;;
28170;SDS011;15458;53.346;-1.688;2022-11-15T06:08:01;3.70;;;1.60;;
28170;SDS011;15458;53.346;-1.688;2022-11-15T06:10:26;9.60;;;2.03;;
28170;SDS011;15458;53.346;-1.688;2022-11-15T06:12:56;5.72;;;1.80;;
28170;SDS011;15458;53.346;-1.688;2022-11-15T06:15:26;4.50;;;1.80;;
28170;SDS011;15458;53.346;-1.688;2022-11-15T06:17:52;4.80;;;1.40;;
28170;SDS011;15458;53.346;-1.688;2022-11-15T06:20:22;4.80;;;1.50;;
28170;SDS011;15458;53.346;-1.688;2022-11-15T06:22:48;4.38;;;1.55;;
28170;SDS011;15458;53.346;-1.688;2022-11-15T06:25:14;4.10;;;1.52;;
28170;SDS011;15458;53.346;-1.688;2022-11-15T06:27:39;2.42;;;1.50;;
28170;SDS011;15458;53.346;-1.688;2022-11-15T06:30:05;4.88;;;1.50;;
28170;SDS011;15458;53.346;-1.688;2022-11-15T06:32:31;2.45;;;1.60;;
28170;SDS011;15458;53.346;-1.688;2022-11-15T06:34:57;7.22;;;1.42;;
28170;SDS011;15458;53.346;-1.688;2022-11-15T06:37:22;2.30;;;1.40;;
28170;SDS011;15458;53.346;-1.688;2022-11-15T06:39:48;4.85;;;1.30;;
28170;SDS011;15458;53.346;-1.688;2022-11-15T06:42:14;3.83;;;1.30;;
28170;SDS011;15458;53.346;-1.688;2022-11-15T06:44:39;2.58;;;0.98;;
28170;SDS011;15458;53.346;-1.688;2022-11-15T06:47:05;7.25;;;1.50;;
28170;SDS011;15458;53.346;-1.688;2022-11-15T06:49:30;2.28;;;1.20;;
28170;SDS011;15458;53.346;-1.688;2022-11-15T06:51:56;1.67;;;0.95;;
28170;SDS011;15458;53.346;-1.688;2022-11-15T06:54:21;1.75;;;1.17;;
28170;SDS011;15458;53.346;-1.688;2022-11-15T06:56:47;6.95;;;1.30;;
28170;SDS011;15458;53.346;-1.688;2022-11-15T06:59:13;2.35;;;1.10;;
28170;SDS011;15458;53.346;-1.688;2022-11-15T07:01:38;2.70;;;1.80;;
28170;SDS011;15458;53.346;-1.688;2022-11-15T07:04:04;8.05;;;1.63;;
28170;SDS011;15458;53.346;-1.688;2022-11-15T07:06:29;5.32;;;1.30;;
28170;SDS011;15458;53.346;-1.688;2022-11-15T07:08:55;1.52;;;1.00;;
28170;SDS011;15458;53.346;-1.688;2022-11-15T07:11:21;4.20;;;1.25;;
28170;SDS011;15458;53.346;-1.688;2022-11-15T07:13:46;5.50;;;1.45;;
28170;SDS011;15458;53.346;-1.688;2022-11-15T07:16:12;3.40;;;1.40;;
28170;SDS011;15458;53.346;-1.688;2022-11-15T07:18:38;10.73;;;1.80;;
28170;SDS011;15458;53.346;-1.688;2022-11-15T07:21:05;4.70;;;1.50;;
28170;SDS011;15458;53.346;-1.688;2022-11-15T07:23:32;5.75;;;1.88;;
28170;SDS011;15458;53.346;-1.688;2022-11-15T07:26:00;6.30;;;1.70;;
28170;SDS011;15458;53.346;-1.688;2022-11-15T07:28:26;3.30;;;1.77;;
28170;SDS011;15458;53.346;-1.688;2022-11-15T07:30:52;2.45;;;1.65;;
28170;SDS011;15458;53.346;-1.688;2022-11-15T07:33:18;3.78;;;2.30;;
28170;SDS011;15458;53.346;-1.688;2022-11-15T07:35:44;5.63;;;2.17;;
28170;SDS011;15458;53.346;-1.688;2022-11-15T07:38:13;4.20;;;2.17;;
28170;SDS011;15458;53.346;-1.688;2022-11-15T07:40:40;9.38;;;2.50;;
28170;SDS011;15458;53.346;-1.688;2022-11-15T07:43:06;4.03;;;2.63;;
28170;SDS011;15458;53.346;-1.688;2022-11-15T07:45:33;7.05;;;2.95;;
28170;SDS011;15458;53.346;-1.688;2022-11-15T07:48:04;6.80;;;2.97;;
28170;SDS011;15458;53.346;-1.688;2022-11-15T07:50:30;5.88;;;3.03;;
28170;SDS011;15458;53.346;-1.688;2022-11-15T07:52:56;4.88;;;3.00;;
28170;SDS011;15458;53.346;-1.688;2022-11-15T07:55:23;5.45;;;2.78;;
28170;SDS011;15458;53.346;-1.688;2022-11-15T07:57:49;6.82;;;2.67;;
28170;SDS011;15458;53.346;-1.688;2022-11-15T08:00:15;3.88;;;2.65;;
28170;SDS011;15458;53.346;-1.688;2022-11-15T08:02:41;6.15;;;3.17;;
28170;SDS011;15458;53.346;-1.688;2022-11-15T08:05:07;4.90;;;2.85;;
28170;SDS011;15458;53.346;-1.688;2022-11-15T08:07:33;7.82;;;3.30;;
28170;SDS011;15458;53.346;-1.688;2022-11-15T08:09:58;4.63;;;2.70;;
28170;SDS011;15458;53.346;-1.688;2022-11-15T08:12:26;3.58;;;2.30;;
28170;SDS011;15458;53.346;-1.688;2022-11-15T08:14:53;6.43;;;2.58;;
28170;SDS011;15458;53.346;-1.688;2022-11-15T08:17:20;2.33;;;2.13;;
28170;SDS011;15458;53.346;-1.688;2022-11-15T08:19:45;6.50;;;2.40;;
28170;SDS011;15458;53.346;-1.688;2022-11-15T08:22:11;4.57;;;2.35;;
28170;SDS011;15458;53.346;-1.688;2022-11-15T08:24:37;4.60;;;2.50;;
28170;SDS011;15458;53.346;-1.688;2022-11-15T08:27:03;3.20;;;2.30;;
28170;SDS011;15458;53.346;-1.688;2022-11-15T08:29:29;2.78;;;2.47;;
28170;SDS011;15458;53.346;-1.688;2022-11-15T08:31:55;4.45;;;2.90;;
28170;SDS011;15458;53.346;-1.688;2022-11-15T08:34:21;3.28;;;2.75;;
28170;SDS011;15458;53.346;-1.688;2022-11-15T08:36:47;4.18;;;2.55;;
28170;SDS011;15458;53.346;-1.688;2022-11-15T08:39:12;2.53;;;2.22;;
28170;SDS011;15458;53.346;-1.688;2022-11-15T08:41:38;7.55;;;2.60;;
28170;SDS011;15458;53.346;-1.688;2022-11-15T08:44:04;3.17;;;2.05;;
28170;SDS011;15458;53.346;-1.688;2022-11-15T08:46:30;4.35;;;2.33;;
28170;SDS011;15458;53.346;-1.688;2022-11-15T08:48:56;3.20;;;2.22;;
28170;SDS011;15458;53.346;-1.688;2022-11-15T08:51:21;6.15;;;1.80;;
28170;SDS011;15458;53.346;-1.688;2022-11-15T08:53:47;2.95;;;1.77;;
28170;SDS011;15458;53.346;-1.688;2022-11-15T08:56:13;2.78;;;1.83;;
28170;SDS011;15458;53.346;-1.688;2022-11-15T08:58:39;3.60;;;1.77;;
28170;SDS011;15458;53.346;-1.688;2022-11-15T09:01:05;3.15;;;1.75;;
28170;SDS011;15458;53.346;-1.688;2022-11-15T09:03:31;4.78;;;1.70;;
28170;SDS011;15458;53.346;-1.688;2022-11-15T09:05:58;4.35;;;1.58;;
28170;SDS011;15458;53.346;-1.688;2022-11-15T09:08:25;2.20;;;1.55;;
28170;SDS011;15458;53.346;-1.688;2022-11-15T09:10:54;4.65;;;1.40;;
28170;SDS011;15458;53.346;-1.688;2022-11-15T09:13:19;5.10;;;1.83;;
28170;SDS011;15458;53.346;-1.688;2022-11-15T09:15:45;5.50;;;1.90;;
28170;SDS011;15458;53.346;-1.688;2022-11-15T09:18:11;3.42;;;2.45;;
28170;SDS011;15458;53.346;-1.688;2022-11-15T09:20:36;4.18;;;1.50;;
28170;SDS011;15458;53.346;-1.688;2022-11-15T09:23:02;3.15;;;1.45;;
28170;SDS011;15458;53.346;-1.688;2022-11-15T09:25:29;2.78;;;1.35;;
28170;SDS011;15458;53.346;-1.688;2022-11-15T09:27:55;1.58;;;1.40;;
28170;SDS011;15458;53.346;-1.688;2022-11-15T09:30:22;2.92;;;1.52;;
28170;SDS011;15458;53.346;-1.688;2022-11-15T09:32:48;3.15;;;1.70;;
28170;SDS011;15458;53.346;-1.688;2022-11-15T09:35:14;3.97;;;1.65;;
28170;SDS011;15458;53.346;-1.688;2022-11-15T09:37:40;1.80;;;1.60;;
28170;SDS011;15458;53.346;-1.688;2022-11-15T09:40:06;2.58;;;1.23;;
28170;SDS011;15458;53.346;-1.688;2022-11-15T09:42:51;2.28;;;1.67;;
28170;SDS011;15458;53.346;-1.688;2022-11-15T09:48:07;2.55;;;1.48;;
28170;SDS011;15458;53.346;-1.688;2022-11-15T09:50:53;2.33;;;1.00;;
28170;SDS011;15458;53.346;-1.688;2022-11-15T09:58:29;1.48;;;1.08;;
28170;SDS011;15458;53.346;-1.688;2022-11-15T10:01:04;1.10;;;0.85;;
28170;SDS011;15458;53.346;-1.688;2022-11-15T10:03:37;2.75;;;0.93;;
28170;SDS011;15458;53.346;-1.688;2022-11-15T10:06:12;0.93;;;0.80;;
28170;SDS011;15458;53.346;-1.688;2022-11-15T10:11:20;1.98;;;0.93;;
28170;SDS011;15458;53.346;-1.688;2022-11-15T10:13:50;2.10;;;1.05;;
28170;SDS011;15458;53.346;-1.688;2022-11-15T10:24:38;2.78;;;1.55;;
28170;SDS011;15458;53.346;-1.688;2022-11-15T10:27:10;2.03;;;1.15;;
28170;SDS011;15458;53.346;-1.688;2022-11-15T10:29:50;5.95;;;1.40;;
28170;SDS011;15458;53.346;-1.688;2022-11-15T10:32:17;1.20;;;1.10;;
28170;SDS011;15458;53.346;-1.688;2022-11-15T10:34:47;1.52;;;0.88;;
28170;SDS011;15458;53.346;-1.688;2022-11-15T10:37:14;2.25;;;1.10;;
28170;SDS011;15458;53.346;-1.688;2022-11-15T10:45:51;3.83;;;1.00;;
28170;SDS011;15458;53.346;-1.688;2022-11-15T10:50:44;2.97;;;0.90;;
28170;SDS011;15458;53.346;-1.688;2022-11-15T10:55:50;1.73;;;0.70;;
28170;SDS011;15458;53.346;-1.688;2022-11-15T11:01:11;0.40;;;0.40;;
28170;SDS011;15458;53.346;-1.688;2022-11-15T11:03:43;1.08;;;0.52;;
28170;SDS011;15458;53.346;-1.688;2022-11-15T11:06:14;4.15;;;0.75;;
28170;SDS011;15458;53.346;-1.688;2022-11-15T11:08:56;3.20;;;0.50;;
28170;SDS011;15458;53.346;-1.688;2022-11-15T11:11:22;0.57;;;0.40;;
28170;SDS011;15458;53.346;-1.688;2022-11-15T11:13:48;1.48;;;0.52;;
28170;SDS011;15458;53.346;-1.688;2022-11-15T11:32:58;1.35;;;0.60;;
28170;SDS011;15458;53.346;-1.688;2022-11-15T11:47:22;2.78;;;0.55;;
28170;SDS011;15458;53.346;-1.688;2022-11-15T11:49:53;1.70;;;0.60;;
28170;SDS011;15458;53.346;-1.688;2022-11-15T11:52:26;1.65;;;0.90;;
28170;SDS011;15458;53.346;-1.688;2022-11-15T11:55:18;1.58;;;0.60;;
28170;SDS011;15458;53.346;-1.688;2022-11-15T11:57:50;0.73;;;0.40;;
28170;SDS011;15458;53.346;-1.688;2022-11-15T12:00:23;0.80;;;0.60;;
28170;SDS011;15458;53.346;-1.688;2022-11-15T12:03:04;0.30;;;0.30;;
28170;SDS011;15458;53.346;-1.688;2022-11-15T12:10:45;0.90;;;0.50;;
28170;SDS011;15458;53.346;-1.688;2022-11-15T12:13:18;2.05;;;0.50;;
28170;SDS011;15458;53.346;-1.688;2022-11-15T12:16:10;2.45;;;0.40;;
28170;SDS011;15458;53.346;-1.688;2022-11-15T12:18:49;0.30;;;0.30;;
28170;SDS011;15458;53.346;-1.688;2022-11-15T12:24:13;2.15;;;0.60;;
28170;SDS011;15458;53.346;-1.688;2022-11-15T12:29:26;0.55;;;0.40;;
28170;SDS011;15458;53.346;-1.688;2022-11-15T12:32:04;0.80;;;0.50;;
28170;SDS011;15458;53.346;-1.688;2022-11-15T12:34:52;1.75;;;0.60;;
28170;SDS011;15458;53.346;-1.688;2022-11-15T12:47:50;0.75;;;0.50;;
28170;SDS011;15458;53.346;-1.688;2022-11-15T12:50:15;0.30;;;0.30;;
28170;SDS011;15458;53.346;-1.688;2022-11-15T12:53:44;0.60;;;0.50;;
28170;SDS011;15458;53.346;-1.688;2022-11-15T13:06:44;1.40;;;0.40;;
28170;SDS011;15458;53.346;-1.688;2022-11-15T13:11:57;0.30;;;0.30;;
28170;SDS011;15458;53.346;-1.688;2022-11-15T13:25:16;0.68;;;0.35;;
28170;SDS011;15458;53.346;-1.688;2022-11-15T13:33:16;0.30;;;0.20;;
28170;SDS011;15458;53.346;-1.688;2022-11-15T13:36:01;0.40;;;0.40;;
28170;SDS011;15458;53.346;-1.688;2022-11-15T13:38:33;0.40;;;0.40;;
28170;SDS011;15458;53.346;-1.688;2022-11-15T13:41:13;1.48;;;0.35;;
28170;SDS011;15458;53.346;-1.688;2022-11-15T13:43:50;0.32;;;0.22;;
28170;SDS011;15458;53.346;-1.688;2022-11-15T13:49:10;1.33;;;0.70;;
28170;SDS011;15458;53.346;-1.688;2022-11-15T13:51:37;0.55;;;0.52;;
28170;SDS011;15458;53.346;-1.688;2022-11-15T13:56:39;0.60;;;0.60;;
28170;SDS011;15458;53.346;-1.688;2022-11-15T13:59:30;1.00;;;0.63;;
28170;SDS011;15458;53.346;-1.688;2022-11-15T14:02:01;1.58;;;1.05;;
28170;SDS011;15458;53.346;-1.688;2022-11-15T14:04:36;2.00;;;1.15;;
28170;SDS011;15458;53.346;-1.688;2022-11-15T14:07:04;2.33;;;1.20;;
28170;SDS011;15458;53.346;-1.688;2022-11-15T14:09:31;2.13;;;0.90;;
28170;SDS011;15458;53.346;-1.688;2022-11-15T14:12:02;1.15;;;0.90;;
28170;SDS011;15458;53.346;-1.688;2022-11-15T14:14:52;2.00;;;1.50;;
28170;SDS011;15458;53.346;-1.688;2022-11-15T14:20:01;1.42;;;1.00;;
28170;SDS011;15458;53.346;-1.688;2022-11-15T14:22:50;0.73;;;0.73;;
28170;SDS011;15458;53.346;-1.688;2022-11-15T14:25:20;0.88;;;0.50;;
28170;SDS011;15458;53.346;-1.688;2022-11-15T14:28:08;0.63;;;0.63;;
28170;SDS011;15458;53.346;-1.688;2022-11-15T14:30:41;1.27;;;0.93;;
28170;SDS011;15458;53.346;-1.688;2022-11-15T14:33:50;1.25;;;1.15;;
28170;SDS011;15458;53.346;-1.688;2022-11-15T14:36:05;3.92;;;1.80;;
28170;SDS011;15458;53.346;-1.688;2022-11-15T14:38:40;2.33;;;1.70;;
28170;SDS011;15458;53.346;-1.688;2022-11-15T14:41:17;5.10;;;2.30;;
28170;SDS011;15458;53.346;-1.688;2022-11-15T14:43:51;3.45;;;2.40;;
28170;SDS011;15458;53.346;-1.688;2022-11-15T14:46:18;4.32;;;2.25;;
28170;SDS011;15458;53.346;-1.688;2022-11-15T14:48:44;2.08;;;1.52;;
28170;SDS011;15458;53.346;-1.688;2022-11-15T14:51:15;4.80;;;1.95;;
28170;SDS011;15458;53.346;-1.688;2022-11-15T14:53:42;3.00;;;1.30;;
28170;SDS011;15458;53.346;-1.688;2022-11-15T14:56:09;3.42;;;1.73;;
28170;SDS011;15458;53.346;-1.688;2022-11-15T14:58:35;5.25;;;1.80;;
28170;SDS011;15458;53.346;-1.688;2022-11-15T15:03:41;3.97;;;1.83;;
28170;SDS011;15458;53.346;-1.688;2022-11-15T15:06:09;4.68;;;1.60;;
28170;SDS011;15458;53.346;-1.688;2022-11-15T15:08:35;3.63;;;1.70;;
28170;SDS011;15458;53.346;-1.688;2022-11-15T15:11:00;5.82;;;1.95;;
28170;SDS011;15458;53.346;-1.688;2022-11-15T15:13:26;2.60;;;1.45;;
28170;SDS011;15458;53.346;-1.688;2022-11-15T15:15:53;3.80;;;1.60;;
28170;SDS011;15458;53.346;-1.688;2022-11-15T15:18:19;2.28;;;1.48;;
28170;SDS011;15458;53.346;-1.688;2022-11-15T15:20:45;3.45;;;1.42;;
28170;SDS011;15458;53.346;-1.688;2022-11-15T15:23:32;3.95;;;1.38;;
28170;SDS011;15458;53.346;-1.688;2022-11-15T15:26:00;4.07;;;1.02;;
28170;SDS011;15458;53.346;-1.688;2022-11-15T15:28:26;2.60;;;0.80;;
28170;SDS011;15458;53.346;-1.688;2022-11-15T15:30:51;3.00;;;1.20;;
28170;SDS011;15458;53.346;-1.688;2022-11-15T15:33:17;4.32;;;1.20;;
28170;SDS011;15458;53.346;-1.688;2022-11-15T15:35:43;4.82;;;1.00;;
28170;SDS011;15458;53.346;-1.688;2022-11-15T15:38:12;4.15;;;0.80;;
28170;SDS011;15458;53.346;-1.688;2022-11-15T15:40:38;4.10;;;1.00;;
28170;SDS011;15458;53.346;-1.688;2022-11-15T15:43:04;11.52;;;1.70;;
28170;SDS011;15458;53.346;-1.688;2022-11-15T15:45:36;3.08;;;0.95;;
28170;SDS011;15458;53.346;-1.688;2022-11-15T15:48:04;2.50;;;1.00;;
28170;SDS011;15458;53.346;-1.688;2022-11-15T15:50:34;6.72;;;1.80;;
28170;SDS011;15458;53.346;-1.688;2022-11-15T15:53:01;5.07;;;1.20;;
28170;SDS011;15458;53.346;-1.688;2022-11-15T15:55:29;10.70;;;1.35;;
28170;SDS011;15458;53.346;-1.688;2022-11-15T15:57:55;2.55;;;0.90;;
28170;SDS011;15458;53.346;-1.688;2022-11-15T16:00:24;8.23;;;1.42;;
28170;SDS011;15458;53.346;-1.688;2022-11-15T16:02:50;3.25;;;0.98;;
28170;SDS011;15458;53.346;-1.688;2022-11-15T16:05:20;3.75;;;1.20;;
28170;SDS011;15458;53.346;-1.688;2022-11-15T16:07:48;2.40;;;1.50;;
28170;SDS011;15458;53.346;-1.688;2022-11-15T16:10:19;5.85;;;1.48;;
28170;SDS011;15458;53.346;-1.688;2022-11-15T16:12:45;4.93;;;1.58;;
28170;SDS011;15458;53.346;-1.688;2022-11-15T16:15:11;6.68;;;1.77;;
28170;SDS011;15458;53.346;-1.688;2022-11-15T16:17:38;10.52;;;2.03;;
28170;SDS011;15458;53.346;-1.688;2022-11-15T16:20:30;7.30;;;1.90;;
28170;SDS011;15458;53.346;-1.688;2022-11-15T16:22:58;14.27;;;2.42;;
28170;SDS011;15458;53.346;-1.688;2022-11-15T16:25:25;11.60;;;2.75;;
28170;SDS011;15458;53.346;-1.688;2022-11-15T16:27:50;16.00;;;2.30;;
28170;SDS011;15458;53.346;-1.688;2022-11-15T16:30:20;9.95;;;2.47;;
28170;SDS011;15458;53.346;-1.688;2022-11-15T16:32:47;15.65;;;1.88;;
28170;SDS011;15458;53.346;-1.688;2022-11-15T16:35:13;14.70;;;3.65;;
28170;SDS011;15458;53.346;-1.688;2022-11-15T16:37:43;9.57;;;2.17;;
28170;SDS011;15458;53.346;-1.688;2022-11-15T16:40:30;15.15;;;3.38;;
28170;SDS011;15458;53.346;-1.688;2022-11-15T16:42:57;14.35;;;3.03;;
28170;SDS011;15458;53.346;-1.688;2022-11-15T16:45:24;13.75;;;2.30;;
28170;SDS011;15458;53.346;-1.688;2022-11-15T16:47:54;20.27;;;4.40;;
28170;SDS011;15458;53.346;-1.688;2022-11-15T16:50:28;12.68;;;2.42;;
28170;SDS011;15458;53.346;-1.688;2022-11-15T16:52:57;15.82;;;2.70;;
28170;SDS011;15458;53.346;-1.688;2022-11-15T16:55:24;18.08;;;4.00;;
28170;SDS011;15458;53.346;-1.688;2022-11-15T16:57:52;18.77;;;3.38;;
28170;SDS011;15458;53.346;-1.688;2022-11-15T17:00:19;17.60;;;3.65;;
28170;SDS011;15458;53.346;-1.688;2022-11-15T17:02:46;21.70;;;4.88;;
28170;SDS011;15458;53.346;-1.688;2022-11-15T17:05:13;15.18;;;3.10;;
28170;SDS011;15458;53.346;-1.688;2022-11-15T17:07:41;14.38;;;3.92;;
28170;SDS011;15458;53.346;-1.688;2022-11-15T17:10:08;13.75;;;2.60;;
28170;SDS011;15458;53.346;-1.688;2022-11-15T17:12:35;9.57;;;2.83;;
28170;SDS011;15458;53.346;-1.688;2022-11-15T17:15:02;9.82;;;3.05;;
28170;SDS011;15458;53.346;-1.688;2022-11-15T17:17:28;8.48;;;2.70;;
28170;SDS011;15458;53.346;-1.688;2022-11-15T17:19:55;10.60;;;2.20;;
28170;SDS011;15458;53.346;-1.688;2022-11-15T17:22:20;9.05;;;2.28;;
28170;SDS011;15458;53.346;-1.688;2022-11-15T17:24:46;14.63;;;2.60;;